Terminal Aerodrome Forecast
Issued by NWS

Home | Current Version | Previous Version | Text Only | Print | Product List | Glossary On
Versions: 1 2 3 4 5 6 7 8 9 10 11 12 13
469
FTUS45 KGGW 090530
TAFSDY
TAF
KSDY 090530Z 0906/1006 VRB03KT P6SM BKN050 OVC100
     FM091200 31006KT P6SM VCSH OVC045
     FM091500 30005KT 6SM -SN OVC025
     FM092200 32005KT P6SM VCSH OVC040
     FM100000 00000KT P6SM BKN080
      AMD LTD TO CLD VIS AND WIND=

USA.gov is the U.S. government's official web portal to all federal, state and local government web resources and services.